sensor_id;sensor_type;location;lat;lon;timestamp;temperature;humidity
68177;DHT22;56478;50.982;7.032;2023-09-30T00:02:11;14.37;86.20
68177;DHT22;56478;50.982;7.032;2023-09-30T00:04:38;14.32;86.49
68177;DHT22;56478;50.982;7.032;2023-09-30T00:07:04;14.30;85.96
68177;DHT22;56478;50.982;7.032;2023-09-30T00:09:30;14.22;85.75
68177;DHT22;56478;50.982;7.032;2023-09-30T00:11:56;14.19;85.76
68177;DHT22;56478;50.982;7.032;2023-09-30T00:14:21;14.13;85.66
68177;DHT22;56478;50.982;7.032;2023-09-30T00:16:47;14.12;86.04
68177;DHT22;56478;50.982;7.032;2023-09-30T00:19:12;14.10;86.21
68177;DHT22;56478;50.982;7.032;2023-09-30T00:21:39;14.08;86.27
68177;DHT22;56478;50.982;7.032;2023-09-30T00:24:05;14.04;86.30
68177;DHT22;56478;50.982;7.032;2023-09-30T00:26:30;14.05;86.21
68177;DHT22;56478;50.982;7.032;2023-09-30T00:28:56;14.04;86.26
68177;DHT22;56478;50.982;7.032;2023-09-30T00:31:22;14.05;86.39
68177;DHT22;56478;50.982;7.032;2023-09-30T00:33:47;14.09;86.56
68177;DHT22;56478;50.982;7.032;2023-09-30T00:36:13;14.06;86.38
68177;DHT22;56478;50.982;7.032;2023-09-30T00:38:39;14.09;86.54
68177;DHT22;56478;50.982;7.032;2023-09-30T00:41:05;14.15;86.73
68177;DHT22;56478;50.982;7.032;2023-09-30T00:43:33;14.17;86.45
68177;DHT22;56478;50.982;7.032;2023-09-30T00:46:36;14.17;86.77
68177;DHT22;56478;50.982;7.032;2023-09-30T00:48:55;14.19;86.36
68177;DHT22;56478;50.982;7.032;2023-09-30T00:51:22;14.19;85.93
68177;DHT22;56478;50.982;7.032;2023-09-30T00:53:49;14.20;85.90
68177;DHT22;56478;50.982;7.032;2023-09-30T00:56:17;14.12;85.94
68177;DHT22;56478;50.982;7.032;2023-09-30T00:58:45;14.15;85.99
68177;DHT22;56478;50.982;7.032;2023-09-30T01:01:11;14.17;86.15
68177;DHT22;56478;50.982;7.032;2023-09-30T01:03:37;14.12;86.21
68177;DHT22;56478;50.982;7.032;2023-09-30T01:06:02;14.10;86.09
68177;DHT22;56478;50.982;7.032;2023-09-30T01:08:28;14.13;86.15
68177;DHT22;56478;50.982;7.032;2023-09-30T01:10:54;14.16;85.89
68177;DHT22;56478;50.982;7.032;2023-09-30T01:13:20;14.12;86.22
68177;DHT22;56478;50.982;7.032;2023-09-30T01:15:46;14.12;86.19
68177;DHT22;56478;50.982;7.032;2023-09-30T01:18:12;14.08;86.22
68177;DHT22;56478;50.982;7.032;2023-09-30T01:20:38;14.09;86.05
68177;DHT22;56478;50.982;7.032;2023-09-30T01:23:04;14.05;86.07
68177;DHT22;56478;50.982;7.032;2023-09-30T01:25:30;14.01;86.09
68177;DHT22;56478;50.982;7.032;2023-09-30T01:27:56;14.04;86.02
68177;DHT22;56478;50.982;7.032;2023-09-30T01:30:25;14.08;86.19
68177;DHT22;56478;50.982;7.032;2023-09-30T01:32:51;14.02;85.84
68177;DHT22;56478;50.982;7.032;2023-09-30T01:35:16;13.98;86.11
68177;DHT22;56478;50.982;7.032;2023-09-30T01:37:42;14.01;86.45
68177;DHT22;56478;50.982;7.032;2023-09-30T01:40:07;13.99;86.15
68177;DHT22;56478;50.982;7.032;2023-09-30T01:42:33;13.97;86.15
68177;DHT22;56478;50.982;7.032;2023-09-30T01:44:59;13.95;86.09
68177;DHT22;56478;50.982;7.032;2023-09-30T01:47:25;13.98;86.12
68177;DHT22;56478;50.982;7.032;2023-09-30T01:49:50;13.95;86.33
68177;DHT22;56478;50.982;7.032;2023-09-30T01:52:16;13.95;86.04
68177;DHT22;56478;50.982;7.032;2023-09-30T01:54:41;13.94;86.00
68177;DHT22;56478;50.982;7.032;2023-09-30T01:57:07;13.97;86.17
68177;DHT22;56478;50.982;7.032;2023-09-30T01:59:32;13.98;86.04
68177;DHT22;56478;50.982;7.032;2023-09-30T02:01:58;13.94;86.20
68177;DHT22;56478;50.982;7.032;2023-09-30T02:04:24;13.92;86.28
68177;DHT22;56478;50.982;7.032;2023-09-30T02:06:49;13.94;85.84
68177;DHT22;56478;50.982;7.032;2023-09-30T02:09:15;13.92;85.98
68177;DHT22;56478;50.982;7.032;2023-09-30T02:11:41;13.83;85.96
68177;DHT22;56478;50.982;7.032;2023-09-30T02:14:07;13.75;86.30
68177;DHT22;56478;50.982;7.032;2023-09-30T02:16:32;13.78;86.60
68177;DHT22;56478;50.982;7.032;2023-09-30T02:18:58;13.77;86.27
68177;DHT22;56478;50.982;7.032;2023-09-30T02:21:24;13.71;86.35
68177;DHT22;56478;50.982;7.032;2023-09-30T02:23:49;13.70;86.36
68177;DHT22;56478;50.982;7.032;2023-09-30T02:26:20;13.72;86.47
68177;DHT22;56478;50.982;7.032;2023-09-30T02:28:47;13.71;86.66
68177;DHT22;56478;50.982;7.032;2023-09-30T02:31:12;13.68;86.45
68177;DHT22;56478;50.982;7.032;2023-09-30T02:33:38;13.63;86.65
68177;DHT22;56478;50.982;7.032;2023-09-30T02:36:08;13.61;86.70
68177;DHT22;56478;50.982;7.032;2023-09-30T02:38:37;13.58;86.43
68177;DHT22;56478;50.982;7.032;2023-09-30T02:41:03;13.57;86.57
68177;DHT22;56478;50.982;7.032;2023-09-30T02:43:29;13.60;86.65
68177;DHT22;56478;50.982;7.032;2023-09-30T02:45:55;13.55;86.92
68177;DHT22;56478;50.982;7.032;2023-09-30T02:48:20;13.54;86.78
68177;DHT22;56478;50.982;7.032;2023-09-30T02:50:46;13.50;86.85
68177;DHT22;56478;50.982;7.032;2023-09-30T02:53:12;13.51;86.74
68177;DHT22;56478;50.982;7.032;2023-09-30T02:55:39;13.46;86.71
68177;DHT22;56478;50.982;7.032;2023-09-30T02:58:05;13.46;86.68
68177;DHT22;56478;50.982;7.032;2023-09-30T03:00:30;13.40;86.75
68177;DHT22;56478;50.982;7.032;2023-09-30T03:02:59;13.40;87.26
68177;DHT22;56478;50.982;7.032;2023-09-30T03:05:25;13.37;86.64
68177;DHT22;56478;50.982;7.032;2023-09-30T03:07:53;13.32;86.63
68177;DHT22;56478;50.982;7.032;2023-09-30T03:10:20;13.33;86.84
68177;DHT22;56478;50.982;7.032;2023-09-30T03:12:51;13.33;86.65
68177;DHT22;56478;50.982;7.032;2023-09-30T03:15:17;13.30;86.75
68177;DHT22;56478;50.982;7.032;2023-09-30T03:17:42;13.33;86.79
68177;DHT22;56478;50.982;7.032;2023-09-30T03:20:09;13.35;86.87
68177;DHT22;56478;50.982;7.032;2023-09-30T03:22:41;13.35;86.54
68177;DHT22;56478;50.982;7.032;2023-09-30T03:25:12;13.33;86.75
68177;DHT22;56478;50.982;7.032;2023-09-30T03:27:38;13.35;86.73
68177;DHT22;56478;50.982;7.032;2023-09-30T03:30:04;13.36;86.58
68177;DHT22;56478;50.982;7.032;2023-09-30T03:32:31;13.33;86.66
68177;DHT22;56478;50.982;7.032;2023-09-30T03:34:59;13.30;86.68
68177;DHT22;56478;50.982;7.032;2023-09-30T03:37:27;13.30;86.77
68177;DHT22;56478;50.982;7.032;2023-09-30T03:39:55;13.26;86.71
68177;DHT22;56478;50.982;7.032;2023-09-30T03:42:21;13.19;86.39
68177;DHT22;56478;50.982;7.032;2023-09-30T03:44:47;13.18;86.62
68177;DHT22;56478;50.982;7.032;2023-09-30T03:47:15;13.15;87.12
68177;DHT22;56478;50.982;7.032;2023-09-30T03:49:41;13.09;87.17
68177;DHT22;56478;50.982;7.032;2023-09-30T03:52:08;13.11;87.13
68177;DHT22;56478;50.982;7.032;2023-09-30T03:54:34;13.09;87.00
68177;DHT22;56478;50.982;7.032;2023-09-30T03:57:00;13.05;86.63
68177;DHT22;56478;50.982;7.032;2023-09-30T03:59:26;13.01;86.96
68177;DHT22;56478;50.982;7.032;2023-09-30T04:01:52;12.96;87.07
68177;DHT22;56478;50.982;7.032;2023-09-30T04:04:21;12.95;86.93
68177;DHT22;56478;50.982;7.032;2023-09-30T04:06:47;12.91;87.12
68177;DHT22;56478;50.982;7.032;2023-09-30T04:09:15;12.88;87.28
68177;DHT22;56478;50.982;7.032;2023-09-30T04:11:41;12.87;87.35
68177;DHT22;56478;50.982;7.032;2023-09-30T04:14:08;12.83;87.45
68177;DHT22;56478;50.982;7.032;2023-09-30T04:16:34;12.84;87.51
68177;DHT22;56478;50.982;7.032;2023-09-30T04:19:01;12.81;87.79
68177;DHT22;56478;50.982;7.032;2023-09-30T04:21:27;12.78;87.58
68177;DHT22;56478;50.982;7.032;2023-09-30T04:23:55;12.81;87.48
68177;DHT22;56478;50.982;7.032;2023-09-30T04:26:21;12.71;87.46
68177;DHT22;56478;50.982;7.032;2023-09-30T04:28:47;12.74;87.67
68177;DHT22;56478;50.982;7.032;2023-09-30T04:31:12;12.74;87.41
68177;DHT22;56478;50.982;7.032;2023-09-30T04:33:38;12.73;87.50
68177;DHT22;56478;50.982;7.032;2023-09-30T04:36:06;12.69;87.65
68177;DHT22;56478;50.982;7.032;2023-09-30T04:38:34;12.64;87.78
68177;DHT22;56478;50.982;7.032;2023-09-30T04:41:00;12.63;87.63
68177;DHT22;56478;50.982;7.032;2023-09-30T04:43:26;12.61;87.85
68177;DHT22;56478;50.982;7.032;2023-09-30T04:45:54;12.61;87.71
68177;DHT22;56478;50.982;7.032;2023-09-30T04:48:23;12.57;87.65
68177;DHT22;56478;50.982;7.032;2023-09-30T04:50:48;12.56;87.78
68177;DHT22;56478;50.982;7.032;2023-09-30T04:53:14;12.57;87.50
68177;DHT22;56478;50.982;7.032;2023-09-30T04:55:43;12.57;87.60
68177;DHT22;56478;50.982;7.032;2023-09-30T04:58:09;12.60;87.61
68177;DHT22;56478;50.982;7.032;2023-09-30T05:00:34;12.56;87.71
68177;DHT22;56478;50.982;7.032;2023-09-30T05:03:00;12.53;87.58
68177;DHT22;56478;50.982;7.032;2023-09-30T05:05:26;12.51;87.33
68177;DHT22;56478;50.982;7.032;2023-09-30T05:07:52;12.47;87.71
68177;DHT22;56478;50.982;7.032;2023-09-30T05:10:17;12.43;88.04
68177;DHT22;56478;50.982;7.032;2023-09-30T05:12:44;12.43;87.65
68177;DHT22;56478;50.982;7.032;2023-09-30T05:15:13;12.44;87.96
68177;DHT22;56478;50.982;7.032;2023-09-30T05:17:44;12.47;87.76
68177;DHT22;56478;50.982;7.032;2023-09-30T05:20:10;12.43;87.89
68177;DHT22;56478;50.982;7.032;2023-09-30T05:22:36;12.44;87.81
68177;DHT22;56478;50.982;7.032;2023-09-30T05:25:02;12.46;87.82
68177;DHT22;56478;50.982;7.032;2023-09-30T05:27:27;12.42;87.65
68177;DHT22;56478;50.982;7.032;2023-09-30T05:29:53;12.37;87.42
68177;DHT22;56478;50.982;7.032;2023-09-30T05:32:21;12.29;87.49
68177;DHT22;56478;50.982;7.032;2023-09-30T05:34:47;12.23;88.15
68177;DHT22;56478;50.982;7.032;2023-09-30T05:37:13;12.21;87.93
68177;DHT22;56478;50.982;7.032;2023-09-30T05:39:39;12.23;88.05
68177;DHT22;56478;50.982;7.032;2023-09-30T05:42:05;12.30;88.02
68177;DHT22;56478;50.982;7.032;2023-09-30T05:44:32;12.34;87.80
68177;DHT22;56478;50.982;7.032;2023-09-30T05:46:58;12.33;87.83
68177;DHT22;56478;50.982;7.032;2023-09-30T05:49:25;12.36;87.67
68177;DHT22;56478;50.982;7.032;2023-09-30T05:51:51;12.42;87.59
68177;DHT22;56478;50.982;7.032;2023-09-30T05:54:16;12.42;87.62
68177;DHT22;56478;50.982;7.032;2023-09-30T05:56:42;12.47;87.43
68177;DHT22;56478;50.982;7.032;2023-09-30T05:59:09;12.50;87.30
68177;DHT22;56478;50.982;7.032;2023-09-30T06:01:35;12.58;87.03
68177;DHT22;56478;50.982;7.032;2023-09-30T06:04:02;12.65;86.73
68177;DHT22;56478;50.982;7.032;2023-09-30T06:06:27;12.75;86.76
68177;DHT22;56478;50.982;7.032;2023-09-30T06:08:57;12.84;86.43
68177;DHT22;56478;50.982;7.032;2023-09-30T06:11:25;12.98;86.01
68177;DHT22;56478;50.982;7.032;2023-09-30T06:13:57;13.06;85.37
68177;DHT22;56478;50.982;7.032;2023-09-30T06:16:29;13.09;85.68
68177;DHT22;56478;50.982;7.032;2023-09-30T06:18:57;13.19;85.46
68177;DHT22;56478;50.982;7.032;2023-09-30T06:21:24;13.24;85.50
68177;DHT22;56478;50.982;7.032;2023-09-30T06:23:50;13.23;84.72
68177;DHT22;56478;50.982;7.032;2023-09-30T06:26:19;13.18;84.75
68177;DHT22;56478;50.982;7.032;2023-09-30T06:28:47;13.19;84.96
68177;DHT22;56478;50.982;7.032;2023-09-30T06:31:13;13.18;85.00
68177;DHT22;56478;50.982;7.032;2023-09-30T06:33:39;13.13;85.36
68177;DHT22;56478;50.982;7.032;2023-09-30T06:36:12;13.11;85.67
68177;DHT22;56478;50.982;7.032;2023-09-30T06:38:43;13.12;86.22
68177;DHT22;56478;50.982;7.032;2023-09-30T06:41:09;13.29;85.74
68177;DHT22;56478;50.982;7.032;2023-09-30T06:43:35;13.47;85.76
68177;DHT22;56478;50.982;7.032;2023-09-30T06:46:07;13.61;85.28
68177;DHT22;56478;50.982;7.032;2023-09-30T06:48:35;13.85;84.63
68177;DHT22;56478;50.982;7.032;2023-09-30T06:51:01;14.08;84.17
68177;DHT22;56478;50.982;7.032;2023-09-30T06:53:27;14.37;83.39
68177;DHT22;56478;50.982;7.032;2023-09-30T06:55:52;14.43;82.83
68177;DHT22;56478;50.982;7.032;2023-09-30T06:58:18;14.45;82.80
68177;DHT22;56478;50.982;7.032;2023-09-30T07:00:49;14.61;82.67
68177;DHT22;56478;50.982;7.032;2023-09-30T07:03:15;14.77;82.03
68177;DHT22;56478;50.982;7.032;2023-09-30T07:05:41;14.78;82.42
68177;DHT22;56478;50.982;7.032;2023-09-30T07:08:08;14.95;81.58
68177;DHT22;56478;50.982;7.032;2023-09-30T07:10:34;15.16;80.93
68177;DHT22;56478;50.982;7.032;2023-09-30T07:13:04;15.20;80.71
68177;DHT22;56478;50.982;7.032;2023-09-30T07:15:32;15.23;80.40
68177;DHT22;56478;50.982;7.032;2023-09-30T07:17:58;15.33;80.28
68177;DHT22;56478;50.982;7.032;2023-09-30T07:20:23;15.14;81.57
68177;DHT22;56478;50.982;7.032;2023-09-30T07:22:50;15.12;81.57
68177;DHT22;56478;50.982;7.032;2023-09-30T07:25:16;15.53;80.07
68177;DHT22;56478;50.982;7.032;2023-09-30T07:27:46;16.55;77.47
68177;DHT22;56478;50.982;7.032;2023-09-30T07:30:13;18.27;72.14
68177;DHT22;56478;50.982;7.032;2023-09-30T07:32:41;19.57;67.39
68177;DHT22;56478;50.982;7.032;2023-09-30T07:35:07;20.44;64.03
68177;DHT22;56478;50.982;7.032;2023-09-30T07:37:33;20.49;63.47
68177;DHT22;56478;50.982;7.032;2023-09-30T07:39:59;21.73;60.60
68177;DHT22;56478;50.982;7.032;2023-09-30T07:42:25;22.51;57.41
68177;DHT22;56478;50.982;7.032;2023-09-30T07:44:51;23.08;56.33
68177;DHT22;56478;50.982;7.032;2023-09-30T07:47:17;24.05;53.58
68177;DHT22;56478;50.982;7.032;2023-09-30T07:49:42;24.53;53.14
68177;DHT22;56478;50.982;7.032;2023-09-30T07:52:08;25.67;49.26
68177;DHT22;56478;50.982;7.032;2023-09-30T07:54:34;25.76;48.85
68177;DHT22;56478;50.982;7.032;2023-09-30T07:57:00;25.71;48.76
68177;DHT22;56478;50.982;7.032;2023-09-30T07:59:26;26.63;47.18
68177;DHT22;56478;50.982;7.032;2023-09-30T08:01:52;25.86;48.96
68177;DHT22;56478;50.982;7.032;2023-09-30T08:04:22;27.49;44.56
68177;DHT22;56478;50.982;7.032;2023-09-30T08:06:49;27.49;45.27
68177;DHT22;56478;50.982;7.032;2023-09-30T08:09:16;27.34;45.53
68177;DHT22;56478;50.982;7.032;2023-09-30T08:11:44;26.90;46.20
68177;DHT22;56478;50.982;7.032;2023-09-30T08:14:10;27.66;45.03
68177;DHT22;56478;50.982;7.032;2023-09-30T08:16:36;28.09;43.75
68177;DHT22;56478;50.982;7.032;2023-09-30T08:19:02;27.98;44.23
68177;DHT22;56478;50.982;7.032;2023-09-30T08:21:29;28.73;41.99
68177;DHT22;56478;50.982;7.032;2023-09-30T08:23:55;27.67;45.07
68177;DHT22;56478;50.982;7.032;2023-09-30T08:26:21;28.83;42.27
68177;DHT22;56478;50.982;7.032;2023-09-30T08:28:47;28.08;43.84
68177;DHT22;56478;50.982;7.032;2023-09-30T08:31:13;28.86;41.69
68177;DHT22;56478;50.982;7.032;2023-09-30T08:33:39;27.84;44.08
68177;DHT22;56478;50.982;7.032;2023-09-30T08:36:11;27.94;44.31
68177;DHT22;56478;50.982;7.032;2023-09-30T08:38:38;27.80;45.45
68177;DHT22;56478;50.982;7.032;2023-09-30T08:41:04;28.74;42.48
68177;DHT22;56478;50.982;7.032;2023-09-30T08:43:31;29.47;41.16
68177;DHT22;56478;50.982;7.032;2023-09-30T08:46:02;29.49;39.92
68177;DHT22;56478;50.982;7.032;2023-09-30T08:48:32;28.46;42.31
68177;DHT22;56478;50.982;7.032;2023-09-30T08:50:58;28.08;44.01
68177;DHT22;56478;50.982;7.032;2023-09-30T08:53:24;28.45;43.38
68177;DHT22;56478;50.982;7.032;2023-09-30T08:55:54;28.36;44.00
68177;DHT22;56478;50.982;7.032;2023-09-30T08:58:24;28.16;43.37
68177;DHT22;56478;50.982;7.032;2023-09-30T09:00:50;29.46;40.40
68177;DHT22;56478;50.982;7.032;2023-09-30T09:03:18;29.43;41.70
68177;DHT22;56478;50.982;7.032;2023-09-30T09:05:44;29.39;42.10
68177;DHT22;56478;50.982;7.032;2023-09-30T09:08:10;29.37;42.46
68177;DHT22;56478;50.982;7.032;2023-09-30T09:10:35;30.46;39.09
68177;DHT22;56478;50.982;7.032;2023-09-30T09:13:01;29.11;43.14
68177;DHT22;56478;50.982;7.032;2023-09-30T09:15:29;29.02;43.06
68177;DHT22;56478;50.982;7.032;2023-09-30T09:17:55;30.25;39.76
68177;DHT22;56478;50.982;7.032;2023-09-30T09:20:25;30.14;38.71
68177;DHT22;56478;50.982;7.032;2023-09-30T09:22:55;29.26;41.40
68177;DHT22;56478;50.982;7.032;2023-09-30T09:25:22;30.21;39.34
68177;DHT22;56478;50.982;7.032;2023-09-30T09:27:52;29.01;41.84
68177;DHT22;56478;50.982;7.032;2023-09-30T09:30:26;29.37;41.16
68177;DHT22;56478;50.982;7.032;2023-09-30T09:35:20;28.94;42.08
68177;DHT22;56478;50.982;7.032;2023-09-30T09:40:29;29.95;39.96
68177;DHT22;56478;50.982;7.032;2023-09-30T09:42:56;29.91;40.12
68177;DHT22;56478;50.982;7.032;2023-09-30T09:45:23;30.15;39.67
68177;DHT22;56478;50.982;7.032;2023-09-30T09:47:49;29.39;40.95
68177;DHT22;56478;50.982;7.032;2023-09-30T09:50:17;27.64;44.34
68177;DHT22;56478;50.982;7.032;2023-09-30T09:52:44;28.98;41.70
68177;DHT22;56478;50.982;7.032;2023-09-30T09:55:11;29.54;40.31
68177;DHT22;56478;50.982;7.032;2023-09-30T09:57:37;29.71;41.15
68177;DHT22;56478;50.982;7.032;2023-09-30T10:00:04;30.37;39.04
68177;DHT22;56478;50.982;7.032;2023-09-30T10:02:42;29.74;40.73
68177;DHT22;56478;50.982;7.032;2023-09-30T10:05:08;29.82;40.42
68177;DHT22;56478;50.982;7.032;2023-09-30T10:07:38;29.09;42.25
68177;DHT22;56478;50.982;7.032;2023-09-30T10:10:11;29.32;41.04
68177;DHT22;56478;50.982;7.032;2023-09-30T10:12:39;28.91;41.36
68177;DHT22;56478;50.982;7.032;2023-09-30T10:18:08;29.82;41.21
68177;DHT22;56478;50.982;7.032;2023-09-30T10:20:39;30.47;38.68
68177;DHT22;56478;50.982;7.032;2023-09-30T10:23:24;30.25;40.01
68177;DHT22;56478;50.982;7.032;2023-09-30T10:25:52;30.01;40.21
68177;DHT22;56478;50.982;7.032;2023-09-30T10:28:41;29.92;39.87
68177;DHT22;56478;50.982;7.032;2023-09-30T10:33:32;29.23;40.88
68177;DHT22;56478;50.982;7.032;2023-09-30T10:35:59;29.16;40.97
68177;DHT22;56478;50.982;7.032;2023-09-30T10:41:00;26.76;45.27
68177;DHT22;56478;50.982;7.032;2023-09-30T10:43:31;25.90;47.69
68177;DHT22;56478;50.982;7.032;2023-09-30T10:45:57;26.28;46.32
68177;DHT22;56478;50.982;7.032;2023-09-30T10:51:15;26.49;47.23
68177;DHT22;56478;50.982;7.032;2023-09-30T10:53:45;26.08;46.77
68177;DHT22;56478;50.982;7.032;2023-09-30T10:56:12;25.78;47.85
68177;DHT22;56478;50.982;7.032;2023-09-30T10:58:52;26.02;46.58
68177;DHT22;56478;50.982;7.032;2023-09-30T11:01:19;25.54;48.09
68177;DHT22;56478;50.982;7.032;2023-09-30T11:03:47;25.12;48.14
68177;DHT22;56478;50.982;7.032;2023-09-30T11:06:19;24.80;50.23
68177;DHT22;56478;50.982;7.032;2023-09-30T11:08:59;24.80;47.12
68177;DHT22;56478;50.982;7.032;2023-09-30T11:14:00;25.03;47.30
68177;DHT22;56478;50.982;7.032;2023-09-30T11:16:25;25.14;48.42
68177;DHT22;56478;50.982;7.032;2023-09-30T11:18:54;25.35;48.79
68177;DHT22;56478;50.982;7.032;2023-09-30T11:21:22;25.39;46.70
68177;DHT22;56478;50.982;7.032;2023-09-30T11:23:48;25.46;48.88
68177;DHT22;56478;50.982;7.032;2023-09-30T11:26:14;25.04;48.71
68177;DHT22;56478;50.982;7.032;2023-09-30T11:28:41;24.91;48.77
68177;DHT22;56478;50.982;7.032;2023-09-30T11:31:09;25.03;50.37
68177;DHT22;56478;50.982;7.032;2023-09-30T11:33:52;24.81;49.48
68177;DHT22;56478;50.982;7.032;2023-09-30T11:36:22;24.69;52.98
68177;DHT22;56478;50.982;7.032;2023-09-30T11:38:48;24.67;49.55
68177;DHT22;56478;50.982;7.032;2023-09-30T11:41:16;24.57;48.46
68177;DHT22;56478;50.982;7.032;2023-09-30T11:44:04;24.74;46.30
68177;DHT22;56478;50.982;7.032;2023-09-30T11:46:31;24.90;47.91
68177;DHT22;56478;50.982;7.032;2023-09-30T11:49:03;24.49;47.12
68177;DHT22;56478;50.982;7.032;2023-09-30T11:51:34;24.31;47.69
68177;DHT22;56478;50.982;7.032;2023-09-30T11:54:08;23.98;50.48
68177;DHT22;56478;50.982;7.032;2023-09-30T11:56:36;23.84;49.12
68177;DHT22;56478;50.982;7.032;2023-09-30T11:59:02;24.03;51.32
68177;DHT22;56478;50.982;7.032;2023-09-30T12:01:30;23.87;50.85
68177;DHT22;56478;50.982;7.032;2023-09-30T12:03:58;23.73;50.05
68177;DHT22;56478;50.982;7.032;2023-09-30T12:06:23;24.11;48.08
68177;DHT22;56478;50.982;7.032;2023-09-30T12:08:51;24.18;47.76
68177;DHT22;56478;50.982;7.032;2023-09-30T12:11:18;23.88;50.31
68177;DHT22;56478;50.982;7.032;2023-09-30T12:13:44;23.66;50.05
68177;DHT22;56478;50.982;7.032;2023-09-30T12:16:10;23.93;50.16
68177;DHT22;56478;50.982;7.032;2023-09-30T12:18:38;23.88;48.47
68177;DHT22;56478;50.982;7.032;2023-09-30T12:21:05;24.01;49.01
68177;DHT22;56478;50.982;7.032;2023-09-30T12:23:33;23.74;48.96
68177;DHT22;56478;50.982;7.032;2023-09-30T12:25:59;23.73;49.35
68177;DHT22;56478;50.982;7.032;2023-09-30T12:28:24;23.77;49.50
68177;DHT22;56478;50.982;7.032;2023-09-30T12:30:52;23.65;51.05
68177;DHT22;56478;50.982;7.032;2023-09-30T12:33:18;23.93;47.90
68177;DHT22;56478;50.982;7.032;2023-09-30T12:35:43;23.80;50.32
68177;DHT22;56478;50.982;7.032;2023-09-30T12:38:09;24.05;45.81
68177;DHT22;56478;50.982;7.032;2023-09-30T12:40:34;23.84;46.93
68177;DHT22;56478;50.982;7.032;2023-09-30T12:43:00;23.69;50.36
68177;DHT22;56478;50.982;7.032;2023-09-30T12:45:26;23.46;54.53
68177;DHT22;56478;50.982;7.032;2023-09-30T12:47:52;23.41;52.64
68177;DHT22;56478;50.982;7.032;2023-09-30T12:50:19;23.45;49.16
68177;DHT22;56478;50.982;7.032;2023-09-30T12:52:45;23.62;46.62
68177;DHT22;56478;50.982;7.032;2023-09-30T12:55:10;23.66;50.14
68177;DHT22;56478;50.982;7.032;2023-09-30T12:57:36;23.66;49.31
68177;DHT22;56478;50.982;7.032;2023-09-30T13:00:02;23.41;49.93
68177;DHT22;56478;50.982;7.032;2023-09-30T13:02:28;23.65;46.83
68177;DHT22;56478;50.982;7.032;2023-09-30T13:04:54;23.65;48.75
68177;DHT22;56478;50.982;7.032;2023-09-30T13:07:20;23.59;50.54
68177;DHT22;56478;50.982;7.032;2023-09-30T13:09:45;23.46;52.56
68177;DHT22;56478;50.982;7.032;2023-09-30T13:12:11;23.80;50.23
68177;DHT22;56478;50.982;7.032;2023-09-30T13:14:37;23.66;49.29
68177;DHT22;56478;50.982;7.032;2023-09-30T13:17:04;23.66;49.44
68177;DHT22;56478;50.982;7.032;2023-09-30T13:19:30;23.69;49.17
68177;DHT22;56478;50.982;7.032;2023-09-30T13:21:58;23.48;49.37
68177;DHT22;56478;50.982;7.032;2023-09-30T13:24:24;23.15;50.23
68177;DHT22;56478;50.982;7.032;2023-09-30T13:26:49;22.90;55.35
68177;DHT22;56478;50.982;7.032;2023-09-30T13:29:18;22.82;52.63
68177;DHT22;56478;50.982;7.032;2023-09-30T13:31:44;22.94;55.12
68177;DHT22;56478;50.982;7.032;2023-09-30T13:34:10;22.69;56.71
68177;DHT22;56478;50.982;7.032;2023-09-30T13:36:37;22.56;55.73
68177;DHT22;56478;50.982;7.032;2023-09-30T13:39:03;22.55;55.79
68177;DHT22;56478;50.982;7.032;2023-09-30T13:41:34;22.35;54.12
68177;DHT22;56478;50.982;7.032;2023-09-30T13:43:59;22.51;53.40
68177;DHT22;56478;50.982;7.032;2023-09-30T13:46:25;22.49;52.67
68177;DHT22;56478;50.982;7.032;2023-09-30T13:48:53;22.42;54.25
68177;DHT22;56478;50.982;7.032;2023-09-30T13:51:19;22.60;51.80
68177;DHT22;56478;50.982;7.032;2023-09-30T13:53:44;22.57;52.05
68177;DHT22;56478;50.982;7.032;2023-09-30T13:56:10;22.37;54.98
68177;DHT22;56478;50.982;7.032;2023-09-30T13:58:36;22.41;53.36
68177;DHT22;56478;50.982;7.032;2023-09-30T14:01:03;22.32;56.09
68177;DHT22;56478;50.982;7.032;2023-09-30T14:03:29;22.24;58.48
68177;DHT22;56478;50.982;7.032;2023-09-30T14:05:55;22.14;56.67
68177;DHT22;56478;50.982;7.032;2023-09-30T14:08:21;22.22;54.61
68177;DHT22;56478;50.982;7.032;2023-09-30T14:10:47;22.05;57.89
68177;DHT22;56478;50.982;7.032;2023-09-30T14:13:12;21.93;53.82
68177;DHT22;56478;50.982;7.032;2023-09-30T14:15:40;22.11;54.72
68177;DHT22;56478;50.982;7.032;2023-09-30T14:18:06;21.98;57.97
68177;DHT22;56478;50.982;7.032;2023-09-30T14:20:32;21.83;56.41
68177;DHT22;56478;50.982;7.032;2023-09-30T14:22:59;21.70;57.63
68177;DHT22;56478;50.982;7.032;2023-09-30T14:25:25;21.65;59.68
68177;DHT22;56478;50.982;7.032;2023-09-30T14:27:51;21.53;57.39
68177;DHT22;56478;50.982;7.032;2023-09-30T14:30:17;21.53;57.58
68177;DHT22;56478;50.982;7.032;2023-09-30T14:32:43;21.39;59.14
68177;DHT22;56478;50.982;7.032;2023-09-30T14:35:09;21.42;55.74
68177;DHT22;56478;50.982;7.032;2023-09-30T14:37:35;21.37;57.89
68177;DHT22;56478;50.982;7.032;2023-09-30T14:40:01;21.35;60.73
68177;DHT22;56478;50.982;7.032;2023-09-30T14:42:31;21.24;61.24
68177;DHT22;56478;50.982;7.032;2023-09-30T14:44:57;21.20;56.94
68177;DHT22;56478;50.982;7.032;2023-09-30T14:47:22;21.34;58.33
68177;DHT22;56478;50.982;7.032;2023-09-30T14:49:48;21.27;59.50
68177;DHT22;56478;50.982;7.032;2023-09-30T14:52:14;21.23;57.11
68177;DHT22;56478;50.982;7.032;2023-09-30T14:54:41;21.24;56.48
68177;DHT22;56478;50.982;7.032;2023-09-30T14:57:07;21.23;58.95
68177;DHT22;56478;50.982;7.032;2023-09-30T14:59:34;21.24;56.64
68177;DHT22;56478;50.982;7.032;2023-09-30T15:01:59;21.28;57.79
68177;DHT22;56478;50.982;7.032;2023-09-30T15:04:25;21.32;63.80
68177;DHT22;56478;50.982;7.032;2023-09-30T15:06:51;21.30;62.29
68177;DHT22;56478;50.982;7.032;2023-09-30T15:09:17;21.08;55.42
68177;DHT22;56478;50.982;7.032;2023-09-30T15:11:42;21.08;55.72
68177;DHT22;56478;50.982;7.032;2023-09-30T15:14:08;21.01;59.21
68177;DHT22;56478;50.982;7.032;2023-09-30T15:16:33;21.03;54.73
68177;DHT22;56478;50.982;7.032;2023-09-30T15:19:00;21.04;54.53
68177;DHT22;56478;50.982;7.032;2023-09-30T15:21:26;20.94;55.18
68177;DHT22;56478;50.982;7.032;2023-09-30T15:23:51;20.82;54.15
68177;DHT22;56478;50.982;7.032;2023-09-30T15:26:17;20.75;53.69
68177;DHT22;56478;50.982;7.032;2023-09-30T15:28:43;20.61;56.79
68177;DHT22;56478;50.982;7.032;2023-09-30T15:31:10;20.68;54.55
68177;DHT22;56478;50.982;7.032;2023-09-30T15:33:36;20.69;54.03
68177;DHT22;56478;50.982;7.032;2023-09-30T15:36:12;20.56;57.74
68177;DHT22;56478;50.982;7.032;2023-09-30T15:38:37;20.62;55.07
68177;DHT22;56478;50.982;7.032;2023-09-30T15:41:03;20.59;55.30
68177;DHT22;56478;50.982;7.032;2023-09-30T15:43:30;20.46;57.60
68177;DHT22;56478;50.982;7.032;2023-09-30T15:45:56;20.39;58.66
68177;DHT22;56478;50.982;7.032;2023-09-30T15:48:21;20.38;63.07